sensor_id;sensor_type;location;lat;lon;timestamp;pressure;altitude;pressure_sealevel;temperature;humidity
41140;BME280;26881;48.784;9.192;2023-12-29T00:02:15;98644.28;;;9.87;81.06
41140;BME280;26881;48.784;9.192;2023-12-29T00:07:37;98640.41;;;9.94;79.56
41140;BME280;26881;48.784;9.192;2023-12-29T00:12:59;98635.94;;;9.96;79.20
41140;BME280;26881;48.784;9.192;2023-12-29T00:18:21;98639.91;;;10.03;78.77
41140;BME280;26881;48.784;9.192;2023-12-29T00:23:43;98641.59;;;9.88;79.77
41140;BME280;26881;48.784;9.192;2023-12-29T00:29:06;98632.31;;;9.99;78.67
41140;BME280;26881;48.784;9.192;2023-12-29T00:34:28;98626.50;;;9.94;78.88
41140;BME280;26881;48.784;9.192;2023-12-29T00:39:50;98624.75;;;9.94;78.35
41140;BME280;26881;48.784;9.192;2023-12-29T00:45:12;98622.56;;;9.86;78.55
41140;BME280;26881;48.784;9.192;2023-12-29T00:50:34;98628.19;;;9.95;78.05
41140;BME280;26881;48.784;9.192;2023-12-29T00:55:56;98626.66;;;9.90;78.42
41140;BME280;26881;48.784;9.192;2023-12-29T01:01:18;98642.50;;;9.87;78.97
41140;BME280;26881;48.784;9.192;2023-12-29T01:06:40;98641.69;;;9.87;79.27
41140;BME280;26881;48.784;9.192;2023-12-29T01:12:02;98644.28;;;10.03;78.04
41140;BME280;26881;48.784;9.192;2023-12-29T01:17:24;98645.97;;;9.88;79.09
41140;BME280;26881;48.784;9.192;2023-12-29T01:22:49;98640.91;;;9.85;79.04
41140;BME280;26881;48.784;9.192;2023-12-29T01:28:11;98629.72;;;9.99;77.53
41140;BME280;26881;48.784;9.192;2023-12-29T01:33:33;98632.91;;;10.04;76.01
41140;BME280;26881;48.784;9.192;2023-12-29T01:38:55;98643.47;;;9.86;76.31
41140;BME280;26881;48.784;9.192;2023-12-29T01:44:19;98647.16;;;9.98;75.65
41140;BME280;26881;48.784;9.192;2023-12-29T01:49:45;98638.22;;;10.02;75.29
41140;BME280;26881;48.784;9.192;2023-12-29T01:55:10;98624.53;;;10.13;74.14
41140;BME280;26881;48.784;9.192;2023-12-29T02:00:33;98623.53;;;10.16;73.99
41140;BME280;26881;48.784;9.192;2023-12-29T02:05:55;98618.06;;;10.04;74.86
41140;BME280;26881;48.784;9.192;2023-12-29T02:11:19;98620.66;;;10.04;74.90
41140;BME280;26881;48.784;9.192;2023-12-29T02:16:58;98624.41;;;10.00;75.88
41140;BME280;26881;48.784;9.192;2023-12-29T02:22:23;98613.44;;;10.09;75.55
41140;BME280;26881;48.784;9.192;2023-12-29T02:33:14;98591.78;;;10.07;75.13
41140;BME280;26881;48.784;9.192;2023-12-29T02:38:39;98593.94;;;10.15;74.01
41140;BME280;26881;48.784;9.192;2023-12-29T02:44:01;98587.44;;;10.22;73.99
41140;BME280;26881;48.784;9.192;2023-12-29T02:49:23;98579.94;;;10.16;74.01
41140;BME280;26881;48.784;9.192;2023-12-29T02:54:45;98579.72;;;10.05;76.11
41140;BME280;26881;48.784;9.192;2023-12-29T03:00:07;98580.91;;;9.83;78.89
41140;BME280;26881;48.784;9.192;2023-12-29T03:05:30;98571.41;;;9.82;80.06
41140;BME280;26881;48.784;9.192;2023-12-29T03:10:52;98568.78;;;9.82;80.91
41140;BME280;26881;48.784;9.192;2023-12-29T03:16:14;98568.09;;;9.79;81.58
41140;BME280;26881;48.784;9.192;2023-12-29T03:21:36;98573.94;;;9.68;82.66
41140;BME280;26881;48.784;9.192;2023-12-29T03:26:58;98568.88;;;9.65;83.28
41140;BME280;26881;48.784;9.192;2023-12-29T03:32:20;98559.19;;;9.67;83.73
41140;BME280;26881;48.784;9.192;2023-12-29T03:37:42;98560.31;;;9.63;84.39
41140;BME280;26881;48.784;9.192;2023-12-29T03:43:04;98544.28;;;9.53;85.37
41140;BME280;26881;48.784;9.192;2023-12-29T03:48:25;98549.19;;;9.43;86.71
41140;BME280;26881;48.784;9.192;2023-12-29T03:53:48;98554.75;;;9.37;87.86
41140;BME280;26881;48.784;9.192;2023-12-29T03:59:09;98554.25;;;9.31;88.51
41140;BME280;26881;48.784;9.192;2023-12-29T04:04:31;98540.75;;;9.22;89.72
41140;BME280;26881;48.784;9.192;2023-12-29T04:09:53;98563.06;;;9.28;89.28
41140;BME280;26881;48.784;9.192;2023-12-29T04:15:15;98541.94;;;9.17;90.77
41140;BME280;26881;48.784;9.192;2023-12-29T04:20:37;98553.44;;;9.13;91.90
41140;BME280;26881;48.784;9.192;2023-12-29T04:25:59;98532.09;;;9.22;91.30
41140;BME280;26881;48.784;9.192;2023-12-29T04:31:21;98536.38;;;9.23;92.14
41140;BME280;26881;48.784;9.192;2023-12-29T04:36:42;98538.47;;;9.32;91.57
41140;BME280;26881;48.784;9.192;2023-12-29T04:42:04;98530.16;;;9.41;91.41
41140;BME280;26881;48.784;9.192;2023-12-29T04:47:26;98529.56;;;9.36;92.06
41140;BME280;26881;48.784;9.192;2023-12-29T04:52:48;98549.03;;;9.31;93.24
41140;BME280;26881;48.784;9.192;2023-12-29T04:58:10;98566.28;;;9.33;93.53
41140;BME280;26881;48.784;9.192;2023-12-29T05:03:32;98554.56;;;9.40;93.40
41140;BME280;26881;48.784;9.192;2023-12-29T05:08:54;98545.66;;;9.44;93.61
41140;BME280;26881;48.784;9.192;2023-12-29T05:14:16;98546.50;;;9.45;93.79
41140;BME280;26881;48.784;9.192;2023-12-29T05:19:38;98552.28;;;9.50;93.69
41140;BME280;26881;48.784;9.192;2023-12-29T05:25:00;98550.38;;;9.38;95.19
41140;BME280;26881;48.784;9.192;2023-12-29T05:30:22;98549.94;;;9.29;98.74
41140;BME280;26881;48.784;9.192;2023-12-29T05:35:44;98553.06;;;9.36;99.59
41140;BME280;26881;48.784;9.192;2023-12-29T05:41:06;98547.22;;;9.15;100.00
41140;BME280;26881;48.784;9.192;2023-12-29T05:46:28;98553.22;;;9.33;100.00
41140;BME280;26881;48.784;9.192;2023-12-29T05:51:50;98557.84;;;9.28;100.00
41140;BME280;26881;48.784;9.192;2023-12-29T05:57:12;98546.41;;;9.31;100.00
41140;BME280;26881;48.784;9.192;2023-12-29T06:02:34;98543.53;;;9.19;100.00
41140;BME280;26881;48.784;9.192;2023-12-29T06:07:56;98552.84;;;9.07;100.00
41140;BME280;26881;48.784;9.192;2023-12-29T06:13:18;98551.00;;;9.10;100.00
41140;BME280;26881;48.784;9.192;2023-12-29T06:18:40;98557.13;;;9.08;100.00
41140;BME280;26881;48.784;9.192;2023-12-29T06:24:02;98566.66;;;9.10;100.00
41140;BME280;26881;48.784;9.192;2023-12-29T06:29:24;98551.19;;;9.22;100.00
41140;BME280;26881;48.784;9.192;2023-12-29T06:34:46;98542.34;;;9.25;100.00
41140;BME280;26881;48.784;9.192;2023-12-29T06:40:08;98553.28;;;9.16;100.00
41140;BME280;26881;48.784;9.192;2023-12-29T06:45:31;98539.66;;;9.26;100.00
41140;BME280;26881;48.784;9.192;2023-12-29T06:50:53;98530.91;;;9.27;100.00
41140;BME280;26881;48.784;9.192;2023-12-29T06:56:15;98544.38;;;9.20;100.00
41140;BME280;26881;48.784;9.192;2023-12-29T07:01:40;98547.28;;;9.14;100.00
41140;BME280;26881;48.784;9.192;2023-12-29T07:07:03;98550.94;;;9.27;100.00
41140;BME280;26881;48.784;9.192;2023-12-29T07:12:25;98544.72;;;9.29;100.00
41140;BME280;26881;48.784;9.192;2023-12-29T07:17:46;98549.09;;;9.29;100.00
41140;BME280;26881;48.784;9.192;2023-12-29T07:23:08;98540.69;;;9.40;100.00
41140;BME280;26881;48.784;9.192;2023-12-29T07:28:32;98542.88;;;9.47;100.00
41140;BME280;26881;48.784;9.192;2023-12-29T07:33:54;98545.22;;;9.36;100.00
41140;BME280;26881;48.784;9.192;2023-12-29T07:39:17;98536.47;;;9.37;100.00
41140;BME280;26881;48.784;9.192;2023-12-29T07:44:39;98530.31;;;9.38;100.00
41140;BME280;26881;48.784;9.192;2023-12-29T07:50:01;98535.53;;;9.38;100.00
41140;BME280;26881;48.784;9.192;2023-12-29T07:55:23;98537.06;;;9.42;100.00
41140;BME280;26881;48.784;9.192;2023-12-29T08:00:45;98545.47;;;9.63;100.00
41140;BME280;26881;48.784;9.192;2023-12-29T08:06:07;98557.00;;;9.59;100.00
41140;BME280;26881;48.784;9.192;2023-12-29T08:11:29;98545.22;;;9.68;100.00
41140;BME280;26881;48.784;9.192;2023-12-29T08:16:51;98554.31;;;9.77;100.00
41140;BME280;26881;48.784;9.192;2023-12-29T08:22:13;98549.41;;;9.86;100.00
41140;BME280;26881;48.784;9.192;2023-12-29T08:27:35;98568.03;;;9.80;100.00
41140;BME280;26881;48.784;9.192;2023-12-29T08:32:57;98565.94;;;9.87;100.00
41140;BME280;26881;48.784;9.192;2023-12-29T08:38:19;98564.41;;;9.83;100.00
41140;BME280;26881;48.784;9.192;2023-12-29T08:43:41;98566.19;;;9.82;100.00
41140;BME280;26881;48.784;9.192;2023-12-29T08:49:03;98563.50;;;9.84;100.00
41140;BME280;26881;48.784;9.192;2023-12-29T08:54:25;98556.88;;;9.92;100.00
41140;BME280;26881;48.784;9.192;2023-12-29T08:59:47;98568.09;;;9.95;100.00
41140;BME280;26881;48.784;9.192;2023-12-29T09:05:10;98561.78;;;9.99;100.00
41140;BME280;26881;48.784;9.192;2023-12-29T09:10:31;98557.66;;;9.95;100.00
41140;BME280;26881;48.784;9.192;2023-12-29T09:15:56;98559.09;;;10.00;100.00
41140;BME280;26881;48.784;9.192;2023-12-29T09:21:19;98562.41;;;10.18;98.75
41140;BME280;26881;48.784;9.192;2023-12-29T09:26:41;98566.50;;;10.38;95.68
41140;BME280;26881;48.784;9.192;2023-12-29T09:32:03;98567.88;;;10.74;93.57
41140;BME280;26881;48.784;9.192;2023-12-29T09:37:25;98578.53;;;11.14;89.93
41140;BME280;26881;48.784;9.192;2023-12-29T09:42:47;98588.25;;;10.97;90.66
41140;BME280;26881;48.784;9.192;2023-12-29T09:48:11;98591.00;;;10.82;91.73
41140;BME280;26881;48.784;9.192;2023-12-29T09:53:35;98591.88;;;10.66;94.73
41140;BME280;26881;48.784;9.192;2023-12-29T09:58:57;98585.75;;;10.82;93.26
41140;BME280;26881;48.784;9.192;2023-12-29T10:04:20;98590.03;;;10.97;90.96
41140;BME280;26881;48.784;9.192;2023-12-29T10:09:42;98577.91;;;11.10;91.99
41140;BME280;26881;48.784;9.192;2023-12-29T10:20:39;98568.13;;;12.37;78.72
41140;BME280;26881;48.784;9.192;2023-12-29T10:26:04;98555.91;;;12.76;75.59
41140;BME280;26881;48.784;9.192;2023-12-29T10:31:27;98553.00;;;12.15;77.28
41140;BME280;26881;48.784;9.192;2023-12-29T10:36:49;98546.19;;;12.25;77.76
41140;BME280;26881;48.784;9.192;2023-12-29T10:42:11;98543.50;;;13.03;72.71
41140;BME280;26881;48.784;9.192;2023-12-29T10:47:35;98535.16;;;13.48;69.49
41140;BME280;26881;48.784;9.192;2023-12-29T10:53:13;98529.44;;;13.54;67.41
41140;BME280;26881;48.784;9.192;2023-12-29T10:58:35;98511.97;;;13.66;65.84
41140;BME280;26881;48.784;9.192;2023-12-29T11:04:00;98502.03;;;14.18;63.09
41140;BME280;26881;48.784;9.192;2023-12-29T11:09:30;98505.41;;;14.42;62.90
41140;BME280;26881;48.784;9.192;2023-12-29T11:14:52;98494.13;;;14.87;59.90
41140;BME280;26881;48.784;9.192;2023-12-29T11:20:15;98499.81;;;14.47;60.68
41140;BME280;26881;48.784;9.192;2023-12-29T11:25:38;98500.81;;;14.22;61.20
41140;BME280;26881;48.784;9.192;2023-12-29T11:31:00;98489.50;;;13.97;61.65
41140;BME280;26881;48.784;9.192;2023-12-29T11:36:28;98484.31;;;13.84;62.14
41140;BME280;26881;48.784;9.192;2023-12-29T11:42:34;98487.69;;;13.25;64.74
41140;BME280;26881;48.784;9.192;2023-12-29T11:47:59;98481.63;;;13.12;64.39
41140;BME280;26881;48.784;9.192;2023-12-29T11:53:31;98481.88;;;12.83;65.72
41140;BME280;26881;48.784;9.192;2023-12-29T11:58:54;98464.44;;;12.95;64.84
41140;BME280;26881;48.784;9.192;2023-12-29T12:04:41;98463.31;;;13.60;62.60
41140;BME280;26881;48.784;9.192;2023-12-29T12:15:41;98440.78;;;14.04;58.78
41140;BME280;26881;48.784;9.192;2023-12-29T12:21:04;98439.81;;;14.05;58.05
41140;BME280;26881;48.784;9.192;2023-12-29T12:26:26;98430.16;;;14.06;57.49
41140;BME280;26881;48.784;9.192;2023-12-29T12:31:55;98427.78;;;14.25;57.00
41140;BME280;26881;48.784;9.192;2023-12-29T12:37:30;98427.31;;;14.20;56.59
41140;BME280;26881;48.784;9.192;2023-12-29T12:42:52;98432.34;;;13.88;56.54
41140;BME280;26881;48.784;9.192;2023-12-29T12:48:23;98423.25;;;13.45;58.45
41140;BME280;26881;48.784;9.192;2023-12-29T12:53:50;98428.31;;;13.60;59.13
41140;BME280;26881;48.784;9.192;2023-12-29T12:59:13;98437.41;;;14.02;58.41
41140;BME280;26881;48.784;9.192;2023-12-29T13:04:35;98435.50;;;14.04;58.45
41140;BME280;26881;48.784;9.192;2023-12-29T13:10:01;98436.44;;;13.57;60.27
41140;BME280;26881;48.784;9.192;2023-12-29T13:15:25;98443.03;;;13.38;60.24
41140;BME280;26881;48.784;9.192;2023-12-29T13:20:47;98439.00;;;12.96;61.35
41140;BME280;26881;48.784;9.192;2023-12-29T13:26:11;98439.97;;;12.95;60.80
41140;BME280;26881;48.784;9.192;2023-12-29T13:31:33;98457.09;;;12.88;58.07
41140;BME280;26881;48.784;9.192;2023-12-29T13:37:06;98449.28;;;12.62;58.67
41140;BME280;26881;48.784;9.192;2023-12-29T13:42:31;98450.97;;;12.50;58.44
41140;BME280;26881;48.784;9.192;2023-12-29T13:47:55;98454.00;;;12.44;58.70
41140;BME280;26881;48.784;9.192;2023-12-29T13:53:18;98451.91;;;12.36;59.09
41140;BME280;26881;48.784;9.192;2023-12-29T13:58:40;98443.22;;;12.36;58.80
41140;BME280;26881;48.784;9.192;2023-12-29T14:04:07;98449.38;;;12.35;59.31
41140;BME280;26881;48.784;9.192;2023-12-29T14:09:32;98454.94;;;12.30;58.59
41140;BME280;26881;48.784;9.192;2023-12-29T14:14:54;98456.19;;;12.37;57.80
41140;BME280;26881;48.784;9.192;2023-12-29T14:20:32;98449.81;;;12.29;57.37
41140;BME280;26881;48.784;9.192;2023-12-29T14:26:03;98453.19;;;12.31;57.47
41140;BME280;26881;48.784;9.192;2023-12-29T14:31:25;98448.25;;;12.26;57.86
41140;BME280;26881;48.784;9.192;2023-12-29T14:36:47;98458.59;;;12.15;58.54
41140;BME280;26881;48.784;9.192;2023-12-29T14:42:09;98467.22;;;12.17;58.77
41140;BME280;26881;48.784;9.192;2023-12-29T14:47:31;98474.34;;;12.28;58.31
41140;BME280;26881;48.784;9.192;2023-12-29T14:52:53;98470.53;;;12.19;58.21
41140;BME280;26881;48.784;9.192;2023-12-29T14:58:15;98471.91;;;12.12;58.71
41140;BME280;26881;48.784;9.192;2023-12-29T15:03:37;98474.31;;;12.02;58.72
41140;BME280;26881;48.784;9.192;2023-12-29T15:09:00;98477.97;;;11.99;58.88
41140;BME280;26881;48.784;9.192;2023-12-29T15:14:22;98477.88;;;12.01;58.81
41140;BME280;26881;48.784;9.192;2023-12-29T15:19:43;98481.03;;;11.79;58.76
41140;BME280;26881;48.784;9.192;2023-12-29T15:25:06;98478.84;;;11.86;58.12
41140;BME280;26881;48.784;9.192;2023-12-29T15:30:28;98476.94;;;11.75;58.83
41140;BME280;26881;48.784;9.192;2023-12-29T15:35:49;98478.19;;;11.69;58.08
41140;BME280;26881;48.784;9.192;2023-12-29T15:41:11;98481.34;;;11.47;58.54
41140;BME280;26881;48.784;9.192;2023-12-29T15:46:33;98475.69;;;11.53;58.37
41140;BME280;26881;48.784;9.192;2023-12-29T15:51:55;98471.56;;;11.36;58.99
41140;BME280;26881;48.784;9.192;2023-12-29T15:57:17;98473.13;;;11.39;58.96
41140;BME280;26881;48.784;9.192;2023-12-29T16:02:39;98478.88;;;11.31;58.57
41140;BME280;26881;48.784;9.192;2023-12-29T16:08:03;98478.22;;;11.28;56.69
41140;BME280;26881;48.784;9.192;2023-12-29T16:13:27;98474.72;;;11.14;56.99
41140;BME280;26881;48.784;9.192;2023-12-29T16:18:49;98474.97;;;11.24;55.48
41140;BME280;26881;48.784;9.192;2023-12-29T16:24:11;98479.00;;;11.15;55.91
41140;BME280;26881;48.784;9.192;2023-12-29T16:29:40;98479.56;;;11.06;55.78
41140;BME280;26881;48.784;9.192;2023-12-29T16:35:04;98471.38;;;10.98;55.91
41140;BME280;26881;48.784;9.192;2023-12-29T16:40:26;98468.03;;;10.82;56.42
41140;BME280;26881;48.784;9.192;2023-12-29T16:45:48;98474.75;;;10.71;56.76
41140;BME280;26881;48.784;9.192;2023-12-29T16:51:12;98473.06;;;10.56;56.91
41140;BME280;26881;48.784;9.192;2023-12-29T16:56:34;98467.09;;;10.54;57.67
41140;BME280;26881;48.784;9.192;2023-12-29T17:01:56;98449.91;;;10.50;57.60
41140;BME280;26881;48.784;9.192;2023-12-29T17:07:18;98445.41;;;10.38;57.84
41140;BME280;26881;48.784;9.192;2023-12-29T17:12:40;98442.13;;;10.34;58.48
41140;BME280;26881;48.784;9.192;2023-12-29T17:18:02;98446.75;;;10.15;59.58
41140;BME280;26881;48.784;9.192;2023-12-29T17:23:24;98455.97;;;10.06;59.91
41140;BME280;26881;48.784;9.192;2023-12-29T17:28:46;98447.28;;;9.91;60.90
41140;BME280;26881;48.784;9.192;2023-12-29T17:34:09;98456.41;;;9.84;61.42
41140;BME280;26881;48.784;9.192;2023-12-29T17:39:31;98462.72;;;9.80;61.78
41140;BME280;26881;48.784;9.192;2023-12-29T17:44:53;98463.31;;;9.69;62.67
41140;BME280;26881;48.784;9.192;2023-12-29T17:50:15;98463.84;;;9.60;63.39
41140;BME280;26881;48.784;9.192;2023-12-29T17:55:37;98467.28;;;9.60;63.90
41140;BME280;26881;48.784;9.192;2023-12-29T18:00:59;98470.00;;;9.59;63.93
41140;BME280;26881;48.784;9.192;2023-12-29T18:06:22;98472.72;;;9.41;64.82
41140;BME280;26881;48.784;9.192;2023-12-29T18:11:44;98464.72;;;9.44;64.77
41140;BME280;26881;48.784;9.192;2023-12-29T18:17:07;98473.47;;;9.43;65.08
41140;BME280;26881;48.784;9.192;2023-12-29T18:22:32;98472.66;;;9.27;66.09
41140;BME280;26881;48.784;9.192;2023-12-29T18:27:54;98479.63;;;9.26;66.32
41140;BME280;26881;48.784;9.192;2023-12-29T18:33:17;98468.63;;;9.05;67.73
41140;BME280;26881;48.784;9.192;2023-12-29T18:38:39;98477.69;;;8.98;68.06
41140;BME280;26881;48.784;9.192;2023-12-29T18:44:03;98473.63;;;8.93;68.75
41140;BME280;26881;48.784;9.192;2023-12-29T18:49:25;98467.59;;;8.92;69.02
41140;BME280;26881;48.784;9.192;2023-12-29T18:54:48;98468.59;;;8.90;69.06
41140;BME280;26881;48.784;9.192;2023-12-29T19:00:13;98480.09;;;8.85;69.54
41140;BME280;26881;48.784;9.192;2023-12-29T19:05:35;98482.91;;;8.98;69.19
41140;BME280;26881;48.784;9.192;2023-12-29T19:10:57;98477.38;;;9.04;69.25
41140;BME280;26881;48.784;9.192;2023-12-29T19:16:22;98474.50;;;8.93;70.27
41140;BME280;26881;48.784;9.192;2023-12-29T19:21:44;98469.81;;;9.00;70.57
41140;BME280;26881;48.784;9.192;2023-12-29T19:27:08;98464.38;;;8.87;71.76
41140;BME280;26881;48.784;9.192;2023-12-29T19:32:30;98457.22;;;8.75;73.76
41140;BME280;26881;48.784;9.192;2023-12-29T19:37:52;98462.53;;;8.73;75.07
41140;BME280;26881;48.784;9.192;2023-12-29T19:43:14;98459.75;;;8.76;76.00
41140;BME280;26881;48.784;9.192;2023-12-29T19:48:36;98473.78;;;8.58;77.78
41140;BME280;26881;48.784;9.192;2023-12-29T19:53:59;98488.03;;;8.51;78.32
41140;BME280;26881;48.784;9.192;2023-12-29T19:59:21;98479.94;;;8.73;77.04
41140;BME280;26881;48.784;9.192;2023-12-29T20:04:43;98473.66;;;8.77;75.90
41140;BME280;26881;48.784;9.192;2023-12-29T20:10:05;98474.22;;;8.82;74.12
41140;BME280;26881;48.784;9.192;2023-12-29T20:15:28;98480.22;;;8.84;72.77
41140;BME280;26881;48.784;9.192;2023-12-29T20:20:50;98482.66;;;8.87;70.33
41140;BME280;26881;48.784;9.192;2023-12-29T20:26:20;98480.91;;;9.03;67.18
41140;BME280;26881;48.784;9.192;2023-12-29T20:31:42;98474.53;;;9.09;65.55
41140;BME280;26881;48.784;9.192;2023-12-29T20:37:04;98473.00;;;9.05;64.56
41140;BME280;26881;48.784;9.192;2023-12-29T20:42:26;98479.22;;;9.02;65.04
41140;BME280;26881;48.784;9.192;2023-12-29T20:47:49;98484.44;;;9.18;63.73
41140;BME280;26881;48.784;9.192;2023-12-29T20:53:11;98484.84;;;9.11;64.02
41140;BME280;26881;48.784;9.192;2023-12-29T20:58:36;98492.16;;;9.04;64.38
41140;BME280;26881;48.784;9.192;2023-12-29T21:04:04;98488.66;;;9.21;63.96
41140;BME280;26881;48.784;9.192;2023-12-29T21:09:26;98486.97;;;9.20;63.97
41140;BME280;26881;48.784;9.192;2023-12-29T21:14:48;98484.59;;;9.31;63.61
41140;BME280;26881;48.784;9.192;2023-12-29T21:20:10;98489.50;;;9.21;63.80
41140;BME280;26881;48.784;9.192;2023-12-29T21:25:35;98485.69;;;9.27;63.95
41140;BME280;26881;48.784;9.192;2023-12-29T21:31:00;98492.69;;;9.11;64.82
41140;BME280;26881;48.784;9.192;2023-12-29T21:36:24;98487.63;;;9.07;65.23
41140;BME280;26881;48.784;9.192;2023-12-29T21:41:46;98476.88;;;8.98;66.24
41140;BME280;26881;48.784;9.192;2023-12-29T21:47:08;98480.22;;;8.84;67.52
41140;BME280;26881;48.784;9.192;2023-12-29T21:52:30;98480.59;;;8.76;68.56
41140;BME280;26881;48.784;9.192;2023-12-29T21:57:51;98480.72;;;8.91;69.29
41140;BME280;26881;48.784;9.192;2023-12-29T22:03:17;98480.97;;;8.86;70.23
41140;BME280;26881;48.784;9.192;2023-12-29T22:08:39;98473.06;;;8.88;70.59
41140;BME280;26881;48.784;9.192;2023-12-29T22:14:05;98484.91;;;8.77;72.40
41140;BME280;26881;48.784;9.192;2023-12-29T22:19:27;98482.09;;;8.64;73.45
41140;BME280;26881;48.784;9.192;2023-12-29T22:24:52;98474.13;;;8.68;74.00
41140;BME280;26881;48.784;9.192;2023-12-29T22:30:15;98467.06;;;8.70;74.56
41140;BME280;26881;48.784;9.192;2023-12-29T22:35:41;98475.22;;;8.63;75.57
41140;BME280;26881;48.784;9.192;2023-12-29T22:41:07;98459.00;;;8.74;74.69
41140;BME280;26881;48.784;9.192;2023-12-29T22:46:29;98470.28;;;8.75;74.91
41140;BME280;26881;48.784;9.192;2023-12-29T22:51:51;98468.91;;;8.68;75.27
41140;BME280;26881;48.784;9.192;2023-12-29T22:57:13;98487.72;;;8.57;76.03
41140;BME280;26881;48.784;9.192;2023-12-29T23:02:38;98473.97;;;8.71;75.32
41140;BME280;26881;48.784;9.192;2023-12-29T23:08:02;98474.44;;;8.61;76.11
41140;BME280;26881;48.784;9.192;2023-12-29T23:13:25;98464.50;;;8.52;76.29
41140;BME280;26881;48.784;9.192;2023-12-29T23:18:49;98469.28;;;8.44;77.30
41140;BME280;26881;48.784;9.192;2023-12-29T23:24:15;98467.97;;;8.35;78.10
41140;BME280;26881;48.784;9.192;2023-12-29T23:29:40;98465.28;;;8.19;79.33
41140;BME280;26881;48.784;9.192;2023-12-29T23:35:02;98462.84;;;8.16;80.43
41140;BME280;26881;48.784;9.192;2023-12-29T23:40:38;98469.44;;;8.06;81.81
41140;BME280;26881;48.784;9.192;2023-12-29T23:46:00;98478.63;;;8.13;82.56
41140;BME280;26881;48.784;9.192;2023-12-29T23:51:22;98483.13;;;8.27;82.47
41140;BME280;26881;48.784;9.192;2023-12-29T23:56:44;98479.31;;;8.52;81.86
